To NAV CANADA Home Page Login to a new session Search on AWWS site Feedback and Comments Disclaimer Vers la page française équivalente Tips FAQ What's new on the site To the Forecasts and Observations / NOTAM section To "File a Flight Plan" website Publications and other links Update of the User's profile FIC Telephone Numbers My Weather Data Folder Route Weather Data Regional Weather Data Local Weather Data To the Forecasts and Observations / NOTAM section
Request Generated 03/28/2017 at 02:23:28 UTC . Weather information available at that time is displayed.

METAR/TAF

CALGARY/SPRINGBANK/AB    (show WxCam)

METAR CYBW 280200Z AUTO 09005KT 050V130 9SM OVC070 08/M04 A2985 RMK
SLP146 DENSITY ALT 4000FT=
METAR CYBW 280100Z AUTO 20008KT 9SM FEW070 BKN091 OVC110 09/M05 A2984
RMK SLP139 DENSITY ALT 4200FT=
METAR CYBW 280000Z AUTO 22008KT 140V230 9SM FEW055 BKN087 10/M04
A2983 RMK SLP133 DENSITY ALT 4300FT=

TAF CYBW 272339Z 2800/2804 30008KT P6SM VCSH FEW050 BKN070
RMK FCST BASED ON AUTO OBS. NXT FCST WILL BE ISSUED AT 281145Z=
Your time UTC time
Weather data provided by Environment Canada and NAV CANADA